createdAt,value
2022-08-04T00:00:13.517Z,17.58
2022-08-04T00:02:55.106Z,17.37
2022-08-04T00:05:56.996Z,17.25
2022-08-04T00:08:29.988Z,17.16
2022-08-04T00:11:00.196Z,17.31
2022-08-04T00:13:33.141Z,17.21
2022-08-04T00:16:07.003Z,17.16
2022-08-04T00:18:52.618Z,17.20
2022-08-04T00:21:21.857Z,17.24
2022-08-04T00:24:10.379Z,17.26
2022-08-04T00:26:37.064Z,17.22
2022-08-04T00:29:05.612Z,17.20
2022-08-04T00:31:54.131Z,17.18
2022-08-04T00:34:19.768Z,17.18
2022-08-04T00:36:46.684Z,17.19
2022-08-04T00:39:14.680Z,17.11
2022-08-04T00:41:56.476Z,17.07
2022-08-04T00:44:42.122Z,16.91
2022-08-04T00:47:44.111Z,16.79
2022-08-04T00:50:13.297Z,16.73
2022-08-04T00:53:01.712Z,16.77
2022-08-04T00:56:06.391Z,16.84
2022-08-04T00:58:42.924Z,16.75
2022-08-04T01:01:18.303Z,16.63
2022-08-04T01:03:51.169Z,16.62
2022-08-04T01:06:42.596Z,16.63
2022-08-04T01:09:21.466Z,16.56
2022-08-04T01:12:03.417Z,16.44
2022-08-04T01:14:50.131Z,16.42
2022-08-04T01:17:20.836Z,16.37
2022-08-04T01:19:54.467Z,16.38
2022-08-04T01:22:23.782Z,16.40
2022-08-04T01:25:08.725Z,16.34
2022-08-04T01:28:17.693Z,16.32
2022-08-04T01:30:48.882Z,16.30
2022-08-04T01:33:17.776Z,16.25
2022-08-04T01:35:48.780Z,16.28
2022-08-04T01:38:39.193Z,16.30
2022-08-04T01:41:08.098Z,16.39
2022-08-04T01:43:40.664Z,16.39
2022-08-04T01:46:11.480Z,16.35
2022-08-04T01:48:43.185Z,16.38
2022-08-04T01:51:13.241Z,16.36
2022-08-04T01:53:44.075Z,16.07
2022-08-04T01:56:13.094Z,16.04
2022-08-04T01:58:41.134Z,16.09
2022-08-04T02:01:12.786Z,16.04
2022-08-04T02:04:18.259Z,16.03
2022-08-04T02:06:46.888Z,15.99
2022-08-04T02:09:54.399Z,15.96
2022-08-04T02:12:31.391Z,15.94
2022-08-04T02:14:57.941Z,15.94
2022-08-04T02:17:39.553Z,15.92
2022-08-04T02:20:09.288Z,15.91
2022-08-04T02:22:46.138Z,15.89
2022-08-04T02:25:17.798Z,15.93
2022-08-04T02:28:04.029Z,15.97
2022-08-04T02:30:53.627Z,15.90
2022-08-04T02:33:26.866Z,15.87
2022-08-04T02:35:59.129Z,15.85
2022-08-04T02:38:35.040Z,15.81
2022-08-04T02:41:02.271Z,15.80
2022-08-04T02:43:51.288Z,15.63
2022-08-04T02:46:21.240Z,15.45
2022-08-04T02:48:50.253Z,15.46
2022-08-04T02:51:21.099Z,15.48
2022-08-04T02:53:52.560Z,15.48
2022-08-04T02:56:21.738Z,15.54
2022-08-04T02:59:02.767Z,15.54
2022-08-04T03:01:32.726Z,15.61
2022-08-04T03:04:08.587Z,15.65
2022-08-04T03:07:06.968Z,15.70
2022-08-04T03:10:12.304Z,15.64
2022-08-04T03:12:57.764Z,15.67
2022-08-04T03:15:37.890Z,15.77
2022-08-04T03:18:24.773Z,15.81
2022-08-04T03:21:16.009Z,15.84
2022-08-04T03:24:02.916Z,15.74
2022-08-04T03:26:50.729Z,15.71
2022-08-04T03:29:39.085Z,15.73
2022-08-04T03:32:24.088Z,15.72
2022-08-04T03:35:02.648Z,15.74
2022-08-04T03:37:39.305Z,15.78
2022-08-04T03:40:24.397Z,15.88
2022-08-04T03:43:57.342Z,15.84
2022-08-04T03:46:53.945Z,15.75
2022-08-04T03:49:56.808Z,15.87
2022-08-04T03:53:10.709Z,15.93
2022-08-04T03:56:04.376Z,15.95
2022-08-04T03:59:00.261Z,15.95
2022-08-04T04:02:02.399Z,15.90
2022-08-04T04:04:42.252Z,15.96
2022-08-04T04:07:13.884Z,15.96
2022-08-04T04:10:28.654Z,15.99
2022-08-04T04:13:16.178Z,16.02
2022-08-04T04:16:06.729Z,16.00
2022-08-04T04:18:54.472Z,15.98
2022-08-04T04:21:21.145Z,15.96
2022-08-04T04:23:57.328Z,16.00
2022-08-04T04:26:39.139Z,15.98
2022-08-04T04:29:44.065Z,15.98
2022-08-04T04:32:28.096Z,15.91
2022-08-04T04:35:28.456Z,15.91
2022-08-04T04:38:16.012Z,15.90
2022-08-04T04:40:51.778Z,15.95
2022-08-04T04:43:51.991Z,16.00
2022-08-04T04:46:37.245Z,15.97
2022-08-04T04:49:34.903Z,16.05
2022-08-04T04:52:24.959Z,16.08
2022-08-04T04:55:10.269Z,16.06
2022-08-04T04:57:51.928Z,16.09
2022-08-04T05:00:23.668Z,16.16
2022-08-04T05:03:29.315Z,16.14
2022-08-04T05:06:04.991Z,16.20
2022-08-04T05:08:54.034Z,16.28
2022-08-04T05:11:51.693Z,16.26
2022-08-04T05:14:35.436Z,16.27
2022-08-04T05:17:26.549Z,16.29
2022-08-04T05:20:24.578Z,16.33
2022-08-04T05:22:53.481Z,16.35
2022-08-04T05:25:25.544Z,16.41
2022-08-04T05:28:02.665Z,16.40
2022-08-04T05:30:32.961Z,16.44
2022-08-04T05:33:04.440Z,16.49
2022-08-04T05:36:17.836Z,16.57
2022-08-04T05:38:37.181Z,16.69
2022-08-04T05:41:04.751Z,16.76
2022-08-04T05:43:32.130Z,16.76
2022-08-04T05:45:59.820Z,16.72
2022-08-04T05:48:28.359Z,16.75
2022-08-04T05:51:00.758Z,16.81
2022-08-04T05:53:29.013Z,16.81
2022-08-04T05:55:59.076Z,16.82
2022-08-04T05:58:29.634Z,16.84
2022-08-04T06:00:57.929Z,16.89
2022-08-04T06:03:27.055Z,16.95
2022-08-04T06:05:54.828Z,16.96
2022-08-04T06:08:21.628Z,16.92
2022-08-04T06:10:49.684Z,16.98
2022-08-04T06:13:47.791Z,16.99
2022-08-04T06:16:08.536Z,17.00
2022-08-04T06:20:03.768Z,17.02
2022-08-04T06:21:39.429Z,16.96
2022-08-04T06:24:10.856Z,16.92
2022-08-04T06:26:38.633Z,17.00
2022-08-04T06:29:10.749Z,17.04
2022-08-04T06:32:27.054Z,17.11
2022-08-04T06:34:35.440Z,17.13
2022-08-04T06:37:03.573Z,17.17
2022-08-04T06:39:33.081Z,17.23
2022-08-04T06:42:21.349Z,17.27
2022-08-04T06:44:52.164Z,17.27
2022-08-04T06:47:21.450Z,17.31
2022-08-04T06:51:27.334Z,17.40
2022-08-04T06:52:40.290Z,17.42
2022-08-04T06:55:08.191Z,17.37
2022-08-04T06:57:35.740Z,17.44
2022-08-04T07:00:12.591Z,17.43
2022-08-04T07:02:43.265Z,17.44
2022-08-04T07:05:11.389Z,17.54
2022-08-04T07:07:57.419Z,17.59
2022-08-04T07:10:30.292Z,17.61
2022-08-04T07:12:58.224Z,17.72
2022-08-04T07:15:26.201Z,17.84
2022-08-04T07:17:53.917Z,17.92
2022-08-04T07:20:34.722Z,17.94
2022-08-04T07:23:03.800Z,18.05
2022-08-04T07:26:00.731Z,18.00
2022-08-04T07:28:20.496Z,17.98
2022-08-04T07:30:48.828Z,17.97
2022-08-04T07:33:19.533Z,17.85
2022-08-04T07:36:04.425Z,17.93
2022-08-04T07:38:37.500Z,17.97
2022-08-04T07:43:59.866Z,18.01
2022-08-04T07:46:26.673Z,17.95
2022-08-04T07:49:01.473Z,17.91
2022-08-04T07:51:34.133Z,18.00
2022-08-04T07:54:05.473Z,18.12
2022-08-04T07:56:33.775Z,18.18
2022-08-04T07:59:01.320Z,18.11
2022-08-04T08:01:28.433Z,18.09
2022-08-04T08:03:57.043Z,18.26
2022-08-04T08:06:32.729Z,18.37
2022-08-04T08:09:12.309Z,18.45
2022-08-04T08:12:35.505Z,18.58
2022-08-04T08:14:35.824Z,18.61
2022-08-04T08:17:05.377Z,18.67
2022-08-04T08:19:33.168Z,18.70
2022-08-04T08:22:01.649Z,18.77
2022-08-04T08:24:35.338Z,18.83
2022-08-04T08:27:04.592Z,18.94
2022-08-04T08:29:34.011Z,19.10
2022-08-04T08:32:07.742Z,19.10
2022-08-04T08:34:35.180Z,18.94
2022-08-04T08:37:33.868Z,18.96
2022-08-04T08:40:39.941Z,18.95
2022-08-04T08:44:04.559Z,18.92
2022-08-04T08:46:49.722Z,18.91
2022-08-04T08:50:01.547Z,18.94
2022-08-04T08:53:09.700Z,19.01
2022-08-04T08:56:15.771Z,19.17
2022-08-04T08:59:03.969Z,19.29
2022-08-04T09:02:07.928Z,19.43
2022-08-04T09:05:02.966Z,19.53
2022-08-04T09:07:49.762Z,19.43
2022-08-04T09:10:24.544Z,19.62
2022-08-04T09:12:56.537Z,19.68
2022-08-04T09:15:26.201Z,19.53
2022-08-04T09:18:02.304Z,19.45
2022-08-04T09:20:34.011Z,19.46
2022-08-04T09:23:03.696Z,19.37
2022-08-04T09:25:58.351Z,19.43
2022-08-04T09:28:53.118Z,19.44
2022-08-04T09:31:24.676Z,19.36
2022-08-04T09:34:04.615Z,19.40
2022-08-04T09:36:47.711Z,19.57
2022-08-04T09:39:20.343Z,19.59
2022-08-04T09:42:10.202Z,19.65
2022-08-04T09:44:52.976Z,19.75
2022-08-04T09:47:45.540Z,19.83
2022-08-04T09:50:33.867Z,19.83
2022-08-04T09:53:38.993Z,19.86
2022-08-04T09:56:28.415Z,20.03
2022-08-04T09:59:16.009Z,20.17
2022-08-04T10:01:44.905Z,20.33
2022-08-04T10:04:14.952Z,20.51
2022-08-04T10:06:49.438Z,20.45
2022-08-04T10:09:31.228Z,20.49
2022-08-04T10:11:58.026Z,20.59
2022-08-04T10:14:49.288Z,20.65
2022-08-04T10:17:35.847Z,20.42
2022-08-04T10:20:14.308Z,20.37
2022-08-04T10:23:56.075Z,20.38
2022-08-04T10:26:33.717Z,20.31
2022-08-04T10:29:38.434Z,20.52
2022-08-04T10:32:14.566Z,20.53
2022-08-04T10:34:59.432Z,20.68
2022-08-04T10:37:53.179Z,20.57
2022-08-04T10:40:45.480Z,20.25
2022-08-04T10:43:33.851Z,20.40
2022-08-04T10:46:23.216Z,20.39
2022-08-04T10:48:59.157Z,20.51
2022-08-04T10:51:58.139Z,20.65
2022-08-04T10:54:59.276Z,20.69
2022-08-04T10:57:41.687Z,20.63
2022-08-04T11:00:13.023Z,20.57
2022-08-04T11:03:06.123Z,20.44
2022-08-04T11:05:57.989Z,20.65
2022-08-04T11:08:44.204Z,20.62
2022-08-04T11:11:23.426Z,20.66
2022-08-04T11:14:04.199Z,20.71
2022-08-04T11:16:43.133Z,20.64
2022-08-04T11:19:43.015Z,20.56
2022-08-04T11:22:23.092Z,20.80
2022-08-04T11:24:55.805Z,20.77
2022-08-04T11:27:34.296Z,20.86
2022-08-04T11:30:07.527Z,21.04
2022-08-04T11:32:52.229Z,20.98
2022-08-04T11:35:37.436Z,20.87
2022-08-04T11:38:27.926Z,20.92
2022-08-04T11:41:10.069Z,20.79
2022-08-04T11:44:01.957Z,20.64
2022-08-04T11:46:34.435Z,20.69
2022-08-04T11:49:11.969Z,20.75
2022-08-04T11:51:40.673Z,20.79
2022-08-04T11:54:10.650Z,20.95
2022-08-04T11:56:38.298Z,21.01
2022-08-04T11:59:08.227Z,21.01
2022-08-04T12:01:47.911Z,21.22
2022-08-04T12:04:42.503Z,21.33
2022-08-04T12:07:34.580Z,21.22
2022-08-04T12:10:10.006Z,21.46
2022-08-04T12:12:51.104Z,21.47
2022-08-04T12:15:30.752Z,21.35
2022-08-04T12:18:22.180Z,21.44
2022-08-04T12:20:59.032Z,21.33
2022-08-04T12:23:32.735Z,21.41
2022-08-04T12:26:10.841Z,21.61
2022-08-04T12:31:40.501Z,21.49
2022-08-04T12:34:29.867Z,21.61
2022-08-04T12:37:20.525Z,21.56
2022-08-04T12:40:28.692Z,21.74
2022-08-04T12:42:56.035Z,21.86
2022-08-04T12:45:27.913Z,21.61
2022-08-04T12:47:58.225Z,21.62
2022-08-04T12:50:26.560Z,21.62
2022-08-04T12:53:02.093Z,21.70
2022-08-04T12:55:35.753Z,21.82
2022-08-04T12:58:11.732Z,21.85
2022-08-04T13:00:41.752Z,21.63
2022-08-04T13:03:12.649Z,21.77
2022-08-04T13:05:41.897Z,21.83
2022-08-04T13:08:10.874Z,21.70
2022-08-04T13:10:40.650Z,21.74
2022-08-04T13:13:19.293Z,21.54
2022-08-04T13:16:01.619Z,21.40
2022-08-04T13:21:49.809Z,21.28
2022-08-04T13:27:16.516Z,21.29
2022-08-04T13:29:59.430Z,21.16
2022-08-04T13:30:24.088Z,21.50
2022-08-04T13:30:24.258Z,21.21
2022-08-04T13:32:31.282Z,21.15
2022-08-04T13:35:00.911Z,21.17
2022-08-04T13:37:35.221Z,21.01
2022-08-04T13:40:09.197Z,20.92
2022-08-04T13:42:39.866Z,21.12
2022-08-04T13:45:08.722Z,21.23
2022-08-04T13:47:39.296Z,21.01
2022-08-04T13:50:28.731Z,21.16
2022-08-04T13:53:02.327Z,21.21
2022-08-04T13:55:34.675Z,20.95
2022-08-04T13:58:19.143Z,20.92
2022-08-04T14:01:05.883Z,20.92
2022-08-04T14:03:54.311Z,20.80
2022-08-04T14:06:25.588Z,20.79
2022-08-04T14:08:54.036Z,20.94
2022-08-04T14:12:09.050Z,21.18
2022-08-04T14:14:29.150Z,21.03
2022-08-04T14:16:57.165Z,21.01
2022-08-04T14:19:26.895Z,21.10
2022-08-04T14:21:57.397Z,21.10
2022-08-04T14:24:28.960Z,20.96
2022-08-04T14:27:00.518Z,21.10
2022-08-04T14:29:38.088Z,21.13
2022-08-04T14:32:22.836Z,21.22
2022-08-04T14:34:53.243Z,21.31
2022-08-04T14:37:22.521Z,21.46
2022-08-04T14:40:17.315Z,21.38
2022-08-04T14:42:55.857Z,21.30
2022-08-04T14:45:32.141Z,21.73
2022-08-04T14:48:00.621Z,21.91
2022-08-04T14:50:54.267Z,21.87
2022-08-04T14:53:26.558Z,22.24
2022-08-04T14:55:56.964Z,22.50
2022-08-04T14:58:34.553Z,22.24
2022-08-04T15:01:10.089Z,22.15
2022-08-04T15:03:50.317Z,21.99
2022-08-04T15:06:22.864Z,21.71
2022-08-04T15:08:51.846Z,21.84
2022-08-04T15:11:23.066Z,22.00
2022-08-04T15:13:53.868Z,21.66
2022-08-04T15:16:22.200Z,21.69
2022-08-04T15:18:50.127Z,21.86
2022-08-04T15:21:19.780Z,21.92
2022-08-04T15:23:48.878Z,22.05
2022-08-04T15:26:26.023Z,22.29
2022-08-04T15:28:57.569Z,22.53
2022-08-04T15:32:07.330Z,22.47
2022-08-04T15:34:14.772Z,22.62
2022-08-04T15:36:57.587Z,22.49
2022-08-04T15:39:33.387Z,22.35
2022-08-04T15:42:30.856Z,22.47
2022-08-04T15:45:05.259Z,22.37
2022-08-04T15:47:32.376Z,22.20
2022-08-04T15:50:06.859Z,22.34
2022-08-04T15:53:00.930Z,22.17
2022-08-04T15:55:34.434Z,22.27
2022-08-04T15:58:11.621Z,22.23
2022-08-04T16:00:53.137Z,21.95
2022-08-04T16:03:53.054Z,21.93
2022-08-04T16:06:21.374Z,21.77
2022-08-04T16:08:56.513Z,21.96
2022-08-04T16:11:31.859Z,22.20
2022-08-04T16:13:58.739Z,22.15
2022-08-04T16:16:37.406Z,22.16
2022-08-04T16:19:48.930Z,22.07
2022-08-04T16:22:39.528Z,22.06
2022-08-04T16:25:08.173Z,22.18
2022-08-04T16:27:40.819Z,22.04
2022-08-04T16:30:15.119Z,22.14
2022-08-04T16:32:46.949Z,21.93
2022-08-04T16:35:28.736Z,21.85
2022-08-04T16:38:13.414Z,21.71
2022-08-04T16:40:44.346Z,21.56
2022-08-04T16:43:21.242Z,21.62
2022-08-04T16:46:00.712Z,21.52
2022-08-04T16:48:36.968Z,21.63
2022-08-04T16:51:14.628Z,21.43
2022-08-04T16:53:53.281Z,21.41
2022-08-04T16:56:33.661Z,21.24
2022-08-04T16:59:14.853Z,21.10
2022-08-04T17:01:49.513Z,21.20
2022-08-04T17:04:16.823Z,20.98
2022-08-04T17:06:46.437Z,20.96
2022-08-04T17:09:17.988Z,21.09
2022-08-04T17:11:46.188Z,20.82
2022-08-04T17:14:13.774Z,20.74
2022-08-04T17:16:43.286Z,20.84
2022-08-04T17:19:24.251Z,20.61
2022-08-04T17:22:07.903Z,20.42
2022-08-04T17:24:38.936Z,20.47
2022-08-04T17:28:09.086Z,20.31
2022-08-04T17:29:54.529Z,20.23
2022-08-04T17:32:23.037Z,20.28
2022-08-04T17:34:52.833Z,20.14
2022-08-04T17:37:40.935Z,20.09
2022-08-04T17:44:04.145Z,19.88
2022-08-04T17:46:29.142Z,19.90
2022-08-04T17:49:05.546Z,19.89
2022-08-04T17:52:06.505Z,19.70
2022-08-04T17:54:39.367Z,19.74
2022-08-04T17:57:21.275Z,19.76
2022-08-04T17:59:57.164Z,19.57
2022-08-04T18:02:33.300Z,19.48
2022-08-04T18:05:06.738Z,19.57
2022-08-04T18:08:39.779Z,19.54
2022-08-04T18:10:54.233Z,19.33
2022-08-04T18:13:24.962Z,19.33
2022-08-04T18:16:02.497Z,19.41
2022-08-04T18:18:29.915Z,19.29
2022-08-04T18:21:02.872Z,19.20
2022-08-04T18:23:33.241Z,19.26
2022-08-04T18:26:01.843Z,19.32
2022-08-04T18:28:30.716Z,19.21
2022-08-04T18:31:00.252Z,18.82
2022-08-04T18:33:37.860Z,18.81
2022-08-04T18:36:32.707Z,18.75
2022-08-04T18:39:13.283Z,18.37
2022-08-04T18:42:02.978Z,18.44
2022-08-04T18:47:23.132Z,18.30
2022-08-04T18:50:59.576Z,18.34
2022-08-04T18:52:45.148Z,18.42
2022-08-04T18:55:55.673Z,18.47
2022-08-04T18:58:01.675Z,18.41
2022-08-04T19:00:34.544Z,18.16
2022-08-04T19:03:01.369Z,18.24
2022-08-04T19:05:37.835Z,18.35
2022-08-04T19:08:35.622Z,18.44
2022-08-04T19:10:59.565Z,18.50
2022-08-04T19:13:29.820Z,18.30
2022-08-04T19:16:01.789Z,18.24
2022-08-04T19:18:29.007Z,18.27
2022-08-04T19:20:55.868Z,18.39
2022-08-04T19:24:11.335Z,18.39
2022-08-04T19:26:23.803Z,18.28
2022-08-04T19:28:55.225Z,18.12
2022-08-04T19:31:28.183Z,18.23
2022-08-04T19:34:07.439Z,18.31
2022-08-04T19:36:34.739Z,18.38
2022-08-04T19:39:04.796Z,18.47
2022-08-04T19:42:06.427Z,18.54
2022-08-04T19:44:25.032Z,18.47
2022-08-04T19:46:57.141Z,18.53
2022-08-04T19:50:03.267Z,18.63
2022-08-04T19:52:33.999Z,18.69
2022-08-04T19:55:10.340Z,18.75
2022-08-04T19:57:46.409Z,18.81
2022-08-04T20:00:33.336Z,18.87
2022-08-04T20:03:11.702Z,18.87
2022-08-04T20:05:53.763Z,18.94
2022-08-04T20:08:24.092Z,19.00
2022-08-04T20:10:52.338Z,19.04
2022-08-04T20:13:21.186Z,19.09
2022-08-04T20:15:55.356Z,19.18
2022-08-04T20:18:34.967Z,19.23
2022-08-04T20:21:11.196Z,19.22
2022-08-04T20:23:48.382Z,19.17
2022-08-04T20:26:16.713Z,19.20
2022-08-04T20:28:45.603Z,19.25
2022-08-04T20:31:18.154Z,19.29
2022-08-04T20:36:32.284Z,19.33
2022-08-04T20:38:58.971Z,19.38
2022-08-04T20:41:25.712Z,19.39
2022-08-04T20:44:03.681Z,19.41
2022-08-04T20:46:30.351Z,19.41
2022-08-04T20:48:58.197Z,19.41
2022-08-04T20:51:33.306Z,19.36
2022-08-04T20:54:02.129Z,19.34
2022-08-04T20:56:30.488Z,19.35
2022-08-04T20:59:01.341Z,19.38
2022-08-04T21:01:34.886Z,19.36
2022-08-04T21:04:27.867Z,19.38
2022-08-04T21:06:57.197Z,19.38
2022-08-04T21:09:26.617Z,19.37
2022-08-04T21:12:06.393Z,19.34
2022-08-04T21:14:33.805Z,19.33
2022-08-04T21:17:02.951Z,19.32
2022-08-04T21:19:31.760Z,19.28
2022-08-04T21:21:58.929Z,19.23
2022-08-04T21:24:26.995Z,19.23
2022-08-04T21:26:56.731Z,19.23
2022-08-04T21:29:34.610Z,19.20
2022-08-04T21:32:07.632Z,19.17
2022-08-04T21:34:39.711Z,19.18
2022-08-04T21:37:09.334Z,19.17
2022-08-04T21:39:50.913Z,19.19
2022-08-04T21:42:29.278Z,19.23
2022-08-04T21:44:57.872Z,19.07
2022-08-04T21:47:24.665Z,19.00
2022-08-04T21:49:56.327Z,19.03
2022-08-04T21:52:26.404Z,19.00
2022-08-04T21:54:54.764Z,19.00
2022-08-04T22:00:10.923Z,18.96
2022-08-04T22:02:45.233Z,18.94
2022-08-04T22:05:11.911Z,18.91
2022-08-04T22:07:49.829Z,18.88
2022-08-04T22:10:18.515Z,18.88
2022-08-04T22:12:52.057Z,18.84
2022-08-04T22:18:05.825Z,18.79
2022-08-04T22:20:32.420Z,18.87
2022-08-04T22:23:06.291Z,18.88
2022-08-04T22:25:42.333Z,18.87
2022-08-04T22:28:11.685Z,18.86
2022-08-04T22:30:48.455Z,18.84
2022-08-04T22:33:19.135Z,18.80
2022-08-04T22:35:50.018Z,18.78
2022-08-04T22:38:24.307Z,18.78
2022-08-04T22:40:57.777Z,18.80
2022-08-04T22:43:32.150Z,18.80
2022-08-04T22:46:03.848Z,18.77
2022-08-04T22:48:33.648Z,18.80
2022-08-04T22:51:02.700Z,18.78
2022-08-04T22:53:33.871Z,18.78
2022-08-04T22:56:09.587Z,18.78
2022-08-04T22:58:45.562Z,18.71
2022-08-04T23:01:17.140Z,18.56
2022-08-04T23:03:51.027Z,18.54
2022-08-04T23:06:24.578Z,18.58
2022-08-04T23:08:54.074Z,18.61
2022-08-04T23:11:20.734Z,18.64
2022-08-04T23:13:49.083Z,18.67
2022-08-04T23:16:15.958Z,18.71
2022-08-04T23:18:45.275Z,18.69
2022-08-04T23:21:17.488Z,18.68
2022-08-04T23:24:02.328Z,18.60
2022-08-04T23:26:32.102Z,18.59
2022-08-04T23:28:59.080Z,18.40
2022-08-04T23:31:40.434Z,18.38
2022-08-04T23:34:08.841Z,18.47
2022-08-04T23:36:35.517Z,18.49
2022-08-04T23:39:05.694Z,18.51
2022-08-04T23:41:53.659Z,18.49
2022-08-04T23:44:24.757Z,18.44
2022-08-04T23:47:02.934Z,18.43
2022-08-04T23:49:43.543Z,18.47
2022-08-04T23:52:23.459Z,18.38
2022-08-04T23:55:00.332Z,18.30
2022-08-04T23:57:30.990Z,18.37
